createdAt,value
2019-03-22T00:00:27.671Z,99.99
2019-03-22T00:01:27.655Z,99.99
2019-03-22T00:02:27.626Z,99.99
2019-03-22T00:03:27.670Z,99.99
2019-03-22T00:04:27.582Z,99.99
2019-03-22T00:05:27.560Z,99.99
2019-03-22T00:06:27.538Z,99.99
2019-03-22T00:07:27.520Z,99.99
2019-03-22T00:08:27.495Z,99.99
2019-03-22T00:09:27.474Z,99.99
2019-03-22T00:10:27.460Z,99.99
2019-03-22T00:11:27.429Z,99.99
2019-03-22T00:12:27.407Z,99.99
2019-03-22T00:13:27.389Z,99.99
2019-03-22T00:14:27.365Z,99.99
2019-03-22T00:15:27.348Z,99.99
2019-03-22T00:16:27.320Z,99.99
2019-03-22T00:17:27.298Z,99.99
2019-03-22T00:18:27.276Z,99.99
2019-03-22T00:19:27.264Z,99.99
2019-03-22T00:20:27.233Z,99.99
2019-03-22T00:21:27.211Z,99.99
2019-03-22T00:22:27.187Z,99.99
2019-03-22T00:23:27.167Z,99.99
2019-03-22T00:24:27.162Z,99.99
2019-03-22T00:25:27.128Z,99.99
2019-03-22T00:26:27.105Z,99.99
2019-03-22T00:27:27.089Z,99.99
2019-03-22T00:28:27.056Z,99.99
2019-03-22T00:29:27.037Z,99.99
2019-03-22T00:30:27.014Z,99.99
2019-03-22T00:31:26.996Z,99.99
2019-03-22T00:32:26.969Z,99.99
2019-03-22T00:33:26.952Z,99.99
2019-03-22T00:34:26.927Z,99.99
2019-03-22T00:35:26.911Z,99.99
2019-03-22T00:36:26.884Z,99.99
2019-03-22T00:37:26.870Z,99.99
2019-03-22T00:38:26.838Z,99.99
2019-03-22T00:39:26.818Z,99.99
2019-03-22T00:40:26.794Z,99.99
2019-03-22T00:41:26.773Z,99.99
2019-03-22T00:42:26.753Z,99.99
2019-03-22T00:43:26.728Z,99.99
2019-03-22T00:44:26.709Z,99.99
2019-03-22T00:45:26.686Z,99.99
2019-03-22T00:46:26.664Z,99.99
2019-03-22T00:47:26.642Z,99.99
2019-03-22T00:48:26.621Z,99.99
2019-03-22T00:49:26.602Z,99.99
2019-03-22T00:50:26.578Z,99.99
2019-03-22T00:51:26.555Z,99.99
2019-03-22T00:52:26.532Z,99.99
2019-03-22T00:53:26.522Z,99.99
2019-03-22T00:54:26.493Z,99.99
2019-03-22T00:55:26.501Z,99.99
2019-03-22T00:56:26.447Z,99.99
2019-03-22T00:57:28.822Z,99.99
2019-03-22T00:58:26.402Z,99.99
2019-03-22T00:59:26.382Z,99.99
2019-03-22T01:00:26.357Z,99.99
2019-03-22T01:01:26.338Z,99.99
2019-03-22T01:02:26.329Z,99.99
2019-03-22T01:03:26.291Z,99.99
2019-03-22T01:04:26.282Z,99.99
2019-03-22T01:05:26.257Z,99.99
2019-03-22T01:06:26.230Z,99.99
2019-03-22T01:07:26.208Z,99.99
2019-03-22T01:08:26.182Z,99.99
2019-03-22T01:09:26.171Z,99.99
2019-03-22T01:10:26.150Z,99.99
2019-03-22T01:11:26.116Z,99.99
2019-03-22T01:12:26.099Z,99.99
2019-03-22T01:13:26.075Z,99.99
2019-03-22T01:14:26.055Z,99.99
2019-03-22T01:15:26.029Z,99.99
2019-03-22T01:16:26.013Z,99.99
2019-03-22T01:17:25.992Z,99.99
2019-03-22T01:18:25.966Z,99.99
2019-03-22T01:19:25.943Z,99.99
2019-03-22T01:20:25.921Z,99.99
2019-03-22T01:21:25.899Z,99.99
2019-03-22T01:22:25.882Z,99.99
2019-03-22T01:23:25.855Z,99.99
2019-03-22T01:24:25.845Z,99.99
2019-03-22T01:25:25.811Z,99.99
2019-03-22T01:26:25.791Z,99.99
2019-03-22T01:27:25.768Z,99.99
2019-03-22T01:28:25.752Z,99.99
2019-03-22T01:29:25.740Z,99.99
2019-03-22T01:30:25.705Z,99.99
2019-03-22T01:31:25.683Z,99.99
2019-03-22T01:32:25.658Z,99.99
2019-03-22T01:33:25.637Z,99.99
2019-03-22T01:34:25.624Z,99.99
2019-03-22T01:35:25.594Z,99.99
2019-03-22T01:36:25.571Z,99.99
2019-03-22T01:37:25.552Z,99.99
2019-03-22T01:38:25.527Z,99.99
2019-03-22T01:39:25.510Z,99.99
2019-03-22T01:40:25.491Z,99.99
2019-03-22T01:41:25.466Z,99.99
2019-03-22T01:42:25.440Z,99.99
2019-03-22T01:43:25.426Z,99.99
2019-03-22T01:44:25.407Z,99.99
2019-03-22T01:45:25.379Z,99.99
2019-03-22T01:46:25.354Z,99.99
2019-03-22T01:47:25.330Z,99.99
2019-03-22T01:48:25.309Z,99.99
2019-03-22T01:49:25.305Z,99.99
2019-03-22T01:50:25.266Z,99.99
2019-03-22T01:51:25.243Z,99.99
2019-03-22T01:52:25.221Z,99.99
2019-03-22T01:53:25.201Z,99.99
2019-03-22T01:54:25.179Z,99.99
2019-03-22T01:55:25.156Z,99.99
2019-03-22T01:56:25.132Z,99.99
2019-03-22T01:57:25.116Z,99.99
2019-03-22T01:58:25.097Z,99.99
2019-03-22T01:59:25.067Z,99.99
2019-03-22T02:00:25.054Z,99.99
2019-03-22T02:01:25.024Z,99.99
2019-03-22T02:02:25.009Z,99.99
2019-03-22T02:03:24.980Z,99.99
2019-03-22T02:04:24.961Z,99.99
2019-03-22T02:05:24.939Z,99.99
2019-03-22T02:06:24.917Z,99.99
2019-03-22T02:07:24.895Z,99.99
2019-03-22T02:08:24.879Z,99.99
2019-03-22T02:09:24.851Z,99.99
2019-03-22T02:10:24.826Z,99.99
2019-03-22T02:11:24.808Z,99.99
2019-03-22T02:12:24.784Z,99.99
2019-03-22T02:13:24.773Z,99.99
2019-03-22T02:14:24.739Z,99.99
2019-03-22T02:15:24.718Z,99.99
2019-03-22T02:16:24.696Z,99.99
2019-03-22T02:17:24.674Z,99.99
2019-03-22T02:18:24.654Z,99.99
2019-03-22T02:19:24.632Z,99.99
2019-03-22T02:20:24.617Z,99.99
2019-03-22T02:21:24.587Z,99.99
2019-03-22T02:22:24.564Z,99.99
2019-03-22T02:23:24.542Z,99.99
2019-03-22T02:24:24.532Z,99.99
2019-03-22T02:25:24.503Z,99.99
2019-03-22T02:26:24.477Z,99.99
2019-03-22T02:27:24.454Z,99.99
2019-03-22T02:28:24.432Z,99.99
2019-03-22T02:29:24.412Z,99.99
2019-03-22T02:30:24.395Z,99.99
2019-03-22T02:31:24.376Z,99.99
2019-03-22T02:32:24.346Z,99.99
2019-03-22T02:33:24.326Z,99.99
2019-03-22T02:34:24.309Z,99.99
2019-03-22T02:35:29.075Z,99.99
2019-03-22T02:36:24.259Z,99.99
2019-03-22T02:37:24.241Z,99.99
2019-03-22T02:38:24.218Z,99.99
2019-03-22T02:39:24.394Z,99.99
2019-03-22T02:40:24.179Z,99.99
2019-03-22T02:41:24.152Z,99.99
2019-03-22T02:42:24.130Z,99.99
2019-03-22T02:43:24.111Z,99.99
2019-03-22T02:44:24.083Z,99.99
2019-03-22T02:45:24.066Z,99.99
2019-03-22T02:46:24.044Z,99.99
2019-03-22T02:47:24.021Z,99.99
2019-03-22T02:48:24.037Z,99.99
2019-03-22T02:49:23.976Z,99.99
2019-03-22T02:50:23.957Z,99.99
2019-03-22T02:51:23.954Z,99.99
2019-03-22T02:52:23.922Z,99.99
2019-03-22T02:53:23.891Z,99.99
2019-03-22T02:54:23.871Z,99.99
2019-03-22T02:55:23.841Z,99.99
2019-03-22T02:56:23.825Z,99.99
2019-03-22T02:57:23.798Z,99.99
2019-03-22T02:58:23.775Z,99.99
2019-03-22T02:59:23.768Z,99.99
2019-03-22T03:00:23.732Z,99.99
2019-03-22T03:01:23.715Z,99.99
2019-03-22T03:02:23.705Z,99.99
2019-03-22T03:03:23.669Z,99.99
2019-03-22T03:04:23.670Z,99.99
2019-03-22T03:05:23.622Z,99.99
2019-03-22T03:06:23.607Z,99.99
2019-03-22T03:07:23.585Z,99.99
2019-03-22T03:08:23.554Z,99.99
2019-03-22T03:09:23.533Z,99.99
2019-03-22T03:10:23.512Z,99.99
2019-03-22T03:11:23.488Z,99.99
2019-03-22T03:12:23.474Z,99.99
2019-03-22T03:13:23.477Z,99.99
2019-03-22T03:14:23.430Z,99.99
2019-03-22T03:15:23.403Z,99.99
2019-03-22T03:16:23.385Z,99.99
2019-03-22T03:17:23.357Z,99.99
2019-03-22T03:18:23.340Z,99.99
2019-03-22T03:19:23.316Z,99.99
2019-03-22T03:20:23.292Z,99.99
2019-03-22T03:21:23.280Z,99.99
2019-03-22T03:22:23.245Z,99.99
2019-03-22T03:23:23.224Z,99.99
2019-03-22T03:24:23.203Z,99.99
2019-03-22T03:25:23.184Z,99.99
2019-03-22T03:26:23.161Z,99.99
2019-03-22T03:27:23.136Z,99.99
2019-03-22T03:28:36.110Z,99.99
2019-03-22T03:29:23.090Z,99.99
2019-03-22T03:30:23.071Z,99.99
2019-03-22T03:31:23.054Z,99.99
2019-03-22T03:32:23.024Z,99.99
2019-03-22T03:33:23.003Z,99.99
2019-03-22T03:34:22.981Z,99.99
2019-03-22T03:35:22.981Z,99.99
2019-03-22T03:36:22.943Z,99.99
2019-03-22T03:37:22.929Z,99.99
2019-03-22T03:38:22.895Z,99.99
2019-03-22T03:39:22.872Z,99.99
2019-03-22T03:40:22.850Z,99.99
2019-03-22T03:41:22.825Z,99.99
2019-03-22T03:42:22.808Z,99.99
2019-03-22T03:43:22.781Z,99.99
2019-03-22T03:44:22.756Z,99.99
2019-03-22T03:45:22.744Z,99.99
2019-03-22T03:46:22.724Z,99.99
2019-03-22T03:47:22.690Z,99.99
2019-03-22T03:48:22.674Z,99.99
2019-03-22T03:49:22.645Z,99.99
2019-03-22T03:50:22.627Z,99.99
2019-03-22T03:51:22.609Z,99.99
2019-03-22T03:52:22.599Z,99.99
2019-03-22T03:53:22.561Z,99.99
2019-03-22T03:54:22.550Z,99.99
2019-03-22T03:55:22.511Z,99.99
2019-03-22T03:56:22.490Z,99.99
2019-03-22T03:57:22.470Z,99.99
2019-03-22T03:58:22.444Z,99.99
2019-03-22T03:59:22.423Z,99.99
2019-03-22T04:00:22.411Z,99.99
2019-03-22T04:01:22.378Z,99.99
2019-03-22T04:02:22.354Z,99.99
2019-03-22T04:03:22.335Z,99.99
2019-03-22T04:04:22.309Z,99.99
2019-03-22T04:05:22.291Z,99.99
2019-03-22T04:06:22.273Z,99.99
2019-03-22T04:07:22.244Z,99.99
2019-03-22T04:08:22.276Z,99.99
2019-03-22T04:09:22.206Z,99.99
2019-03-22T04:10:22.181Z,99.99
2019-03-22T04:11:22.154Z,99.99
2019-03-22T04:12:22.131Z,99.99
2019-03-22T04:13:22.119Z,99.99
2019-03-22T04:14:22.088Z,99.99
2019-03-22T04:15:22.065Z,99.99
2019-03-22T04:16:22.045Z,99.99
2019-03-22T04:17:22.020Z,99.99
2019-03-22T04:18:21.998Z,99.99
2019-03-22T04:19:21.978Z,99.99
2019-03-22T04:20:21.953Z,99.99
2019-03-22T04:21:21.932Z,99.99
2019-03-22T04:22:21.910Z,99.99
2019-03-22T04:23:21.885Z,99.99
2019-03-22T04:24:21.865Z,99.99
2019-03-22T04:25:22.051Z,99.99
2019-03-22T04:26:21.829Z,99.99
2019-03-22T04:27:21.797Z,99.99
2019-03-22T04:28:21.775Z,99.99
2019-03-22T04:29:21.752Z,99.99
2019-03-22T04:30:21.728Z,99.99
2019-03-22T04:31:21.710Z,99.99
2019-03-22T04:32:21.684Z,99.99
2019-03-22T04:33:21.664Z,99.99
2019-03-22T04:34:21.641Z,99.99
2019-03-22T04:35:21.615Z,99.99
2019-03-22T04:36:21.593Z,99.99
2019-03-22T04:37:21.573Z,99.99
2019-03-22T04:38:21.549Z,99.99
2019-03-22T04:39:21.526Z,99.99
2019-03-22T04:40:21.500Z,99.99
2019-03-22T04:41:21.487Z,99.99
2019-03-22T04:42:21.474Z,99.99
2019-03-22T04:43:21.432Z,99.99
2019-03-22T04:44:21.410Z,99.99
2019-03-22T04:45:21.391Z,99.99
2019-03-22T04:46:21.370Z,99.99
2019-03-22T04:47:21.349Z,99.99
2019-03-22T04:48:21.320Z,99.99
2019-03-22T04:49:21.296Z,99.99
2019-03-22T04:50:21.274Z,99.99
2019-03-22T04:51:21.253Z,99.99
2019-03-22T04:52:21.231Z,99.99
2019-03-22T04:53:22.042Z,99.99
2019-03-22T04:54:21.183Z,99.99
2019-03-22T04:55:21.160Z,99.99
2019-03-22T04:56:21.138Z,99.99
2019-03-22T04:57:21.116Z,99.99
2019-03-22T04:58:21.091Z,99.99
2019-03-22T04:59:21.067Z,99.99
2019-03-22T05:00:21.047Z,99.99
2019-03-22T05:01:21.030Z,99.99
2019-03-22T05:02:21.001Z,99.99
2019-03-22T05:03:20.983Z,99.99
2019-03-22T05:04:20.962Z,99.99
2019-03-22T05:05:20.938Z,99.99
2019-03-22T05:06:20.909Z,99.99
2019-03-22T05:07:20.884Z,99.99
2019-03-22T05:08:20.863Z,99.99
2019-03-22T05:09:20.840Z,99.99
2019-03-22T05:10:20.817Z,99.99
2019-03-22T05:11:20.794Z,99.99
2019-03-22T05:12:20.783Z,99.99
2019-03-22T05:13:20.748Z,99.99
2019-03-22T05:14:20.729Z,99.99
2019-03-22T05:15:20.705Z,99.99
2019-03-22T05:16:20.681Z,99.99
2019-03-22T05:17:20.669Z,99.99
2019-03-22T05:18:20.641Z,99.99
2019-03-22T05:19:20.611Z,99.99
2019-03-22T05:20:20.589Z,99.99
2019-03-22T05:21:20.566Z,99.99
2019-03-22T05:22:20.545Z,99.99
2019-03-22T05:23:20.522Z,99.99
2019-03-22T05:24:20.506Z,99.99
2019-03-22T05:25:20.476Z,99.99
2019-03-22T05:26:20.450Z,99.99
2019-03-22T05:27:20.427Z,99.99
2019-03-22T05:28:20.403Z,99.99
2019-03-22T05:29:30.301Z,99.99
2019-03-22T05:30:20.360Z,99.99
2019-03-22T05:31:20.345Z,99.99
2019-03-22T05:32:20.322Z,99.99
2019-03-22T05:33:20.290Z,99.99
2019-03-22T05:34:20.268Z,99.99
2019-03-22T05:35:20.244Z,99.99
2019-03-22T05:36:20.233Z,99.99
2019-03-22T05:37:20.197Z,99.99
2019-03-22T05:38:20.181Z,99.99
2019-03-22T05:39:20.152Z,99.99
2019-03-22T05:40:20.133Z,99.99
2019-03-22T05:41:20.106Z,99.99
2019-03-22T05:42:20.083Z,99.99
2019-03-22T05:43:20.062Z,99.99
2019-03-22T05:44:20.037Z,99.99
2019-03-22T05:45:20.013Z,99.99
2019-03-22T05:46:19.990Z,99.99
2019-03-22T05:47:19.968Z,99.99
2019-03-22T05:48:19.944Z,99.99
2019-03-22T05:49:19.923Z,99.99
2019-03-22T05:50:19.910Z,99.99
2019-03-22T05:51:19.878Z,99.99
2019-03-22T05:52:19.852Z,99.99
2019-03-22T05:53:19.832Z,99.99
2019-03-22T05:54:19.807Z,99.99
2019-03-22T05:55:19.788Z,99.99
2019-03-22T05:56:19.767Z,99.99
2019-03-22T05:57:19.738Z,99.99
2019-03-22T05:58:19.718Z,99.99
2019-03-22T05:59:19.696Z,99.99
2019-03-22T06:00:19.667Z,99.99
2019-03-22T06:01:19.714Z,99.99
2019-03-22T06:02:19.629Z,99.99
2019-03-22T06:03:19.602Z,99.99
2019-03-22T06:04:19.582Z,99.99
2019-03-22T06:05:19.560Z,99.99
2019-03-22T06:06:19.529Z,99.99
2019-03-22T06:07:19.508Z,99.99
2019-03-22T06:08:19.485Z,99.99
2019-03-22T06:09:19.462Z,99.99
2019-03-22T06:10:19.438Z,99.99
2019-03-22T06:11:19.418Z,99.99
2019-03-22T06:12:19.392Z,99.99
2019-03-22T06:13:19.375Z,99.99
2019-03-22T06:14:19.348Z,99.99
2019-03-22T06:15:19.325Z,99.99
2019-03-22T06:16:19.301Z,99.99
2019-03-22T06:17:19.278Z,99.99
2019-03-22T06:18:19.255Z,99.99
2019-03-22T06:19:19.230Z,99.99
2019-03-22T06:20:19.208Z,99.99
2019-03-22T06:21:19.187Z,99.99
2019-03-22T06:22:19.163Z,99.99
2019-03-22T06:23:19.137Z,99.99
2019-03-22T06:24:19.118Z,99.99
2019-03-22T06:25:19.111Z,99.99
2019-03-22T06:26:19.082Z,99.99
2019-03-22T06:27:19.052Z,99.99
2019-03-22T06:28:19.026Z,99.99
2019-03-22T06:29:19.004Z,99.99
2019-03-22T06:30:18.977Z,99.99
2019-03-22T06:31:20.733Z,99.99
2019-03-22T06:32:18.934Z,99.99
2019-03-22T06:33:18.913Z,99.99
2019-03-22T06:34:18.887Z,99.99
2019-03-22T06:35:18.864Z,99.99
2019-03-22T06:36:18.840Z,99.99
2019-03-22T06:37:18.819Z,99.99
2019-03-22T06:38:18.796Z,99.99
2019-03-22T06:39:18.775Z,99.99
2019-03-22T06:40:18.752Z,99.99
2019-03-22T06:41:18.729Z,99.99
2019-03-22T06:42:18.702Z,99.99
2019-03-22T06:43:18.684Z,99.99
2019-03-22T06:44:18.661Z,99.99
2019-03-22T06:45:18.633Z,99.99
2019-03-22T06:46:18.610Z,99.99
2019-03-22T06:47:18.585Z,99.99
2019-03-22T06:48:18.562Z,99.99
2019-03-22T06:49:18.541Z,99.99
2019-03-22T06:50:18.519Z,99.99
2019-03-22T06:51:18.497Z,99.99
2019-03-22T06:52:18.482Z,99.99
2019-03-22T06:53:18.452Z,99.99
2019-03-22T06:54:30.742Z,99.99
2019-03-22T06:55:18.405Z,99.99
2019-03-22T06:56:18.380Z,99.99
2019-03-22T06:57:18.358Z,99.99
2019-03-22T06:58:18.337Z,99.99
2019-03-22T06:59:18.320Z,99.99
2019-03-22T07:00:18.289Z,99.99
2019-03-22T07:01:18.268Z,99.99
2019-03-22T07:02:18.244Z,99.99
2019-03-22T07:03:18.222Z,99.99
2019-03-22T07:04:18.197Z,99.99
2019-03-22T07:05:18.177Z,99.99
2019-03-22T07:06:18.159Z,99.99
2019-03-22T07:07:18.135Z,99.99
2019-03-22T07:08:18.108Z,99.99
2019-03-22T07:09:18.092Z,99.99
2019-03-22T07:10:18.061Z,99.99
2019-03-22T07:11:18.041Z,99.99
2019-03-22T07:12:18.023Z,99.99
2019-03-22T07:13:18.006Z,99.99
2019-03-22T07:14:17.970Z,99.99
2019-03-22T07:15:17.954Z,99.99
2019-03-22T07:16:17.927Z,99.99
2019-03-22T07:17:17.907Z,99.99
2019-03-22T07:18:17.885Z,99.99
2019-03-22T07:19:17.857Z,99.99
2019-03-22T07:20:17.836Z,99.99
2019-03-22T07:21:17.813Z,99.99
2019-03-22T07:22:17.800Z,99.99
2019-03-22T07:23:17.768Z,99.99
2019-03-22T07:24:17.745Z,99.99
2019-03-22T07:25:17.726Z,99.99
2019-03-22T07:26:17.701Z,99.99
2019-03-22T07:27:17.677Z,99.99
2019-03-22T07:28:17.656Z,99.99
2019-03-22T07:29:17.633Z,99.99
2019-03-22T07:30:19.208Z,99.99
2019-03-22T07:31:17.590Z,99.99
2019-03-22T07:32:17.571Z,99.99
2019-03-22T07:33:17.544Z,99.99
2019-03-22T07:34:17.525Z,99.99
2019-03-22T07:35:17.499Z,99.99
2019-03-22T07:36:17.481Z,99.99
2019-03-22T07:37:17.454Z,99.99
2019-03-22T07:38:17.430Z,99.99
2019-03-22T07:39:17.411Z,99.99
2019-03-22T07:40:17.385Z,99.99
2019-03-22T07:41:17.375Z,99.99
2019-03-22T07:42:17.678Z,99.99
2019-03-22T07:43:17.320Z,99.99
2019-03-22T07:44:17.303Z,99.99
2019-03-22T07:45:17.274Z,99.99
2019-03-22T07:46:17.253Z,99.99
2019-03-22T07:47:17.242Z,99.99
2019-03-22T07:48:17.211Z,99.99
2019-03-22T07:49:17.189Z,99.99
2019-03-22T07:50:17.163Z,99.99
2019-03-22T07:51:17.141Z,99.99
2019-03-22T07:52:17.119Z,99.99
2019-03-22T07:53:17.099Z,99.99
2019-03-22T07:54:17.078Z,99.99
2019-03-22T07:55:17.063Z,99.99
2019-03-22T07:56:17.035Z,99.99
2019-03-22T07:57:17.013Z,99.99
2019-03-22T07:58:16.988Z,99.99
2019-03-22T07:59:16.969Z,99.99
2019-03-22T08:00:16.955Z,99.99
2019-03-22T08:01:16.921Z,99.99
2019-03-22T08:02:16.899Z,99.99
2019-03-22T08:03:16.888Z,99.99
2019-03-22T08:04:16.859Z,99.99
2019-03-22T08:05:16.835Z,99.99
2019-03-22T08:06:16.815Z,99.99
2019-03-22T08:07:16.790Z,99.99
2019-03-22T08:08:16.769Z,99.99
2019-03-22T08:09:16.748Z,99.99
2019-03-22T08:10:16.735Z,99.99
2019-03-22T08:11:16.701Z,99.99
2019-03-22T08:12:19.320Z,99.99
2019-03-22T08:13:16.658Z,99.99
2019-03-22T08:14:16.701Z,99.99
2019-03-22T08:15:16.613Z,99.99
2019-03-22T08:16:16.597Z,99.99
2019-03-22T08:17:16.572Z,99.99
2019-03-22T08:18:16.591Z,99.99
2019-03-22T08:19:16.560Z,99.99
2019-03-22T08:20:16.509Z,99.99
2019-03-22T08:21:16.487Z,99.99
2019-03-22T08:22:16.489Z,99.99
2019-03-22T08:23:16.442Z,99.99
2019-03-22T08:24:16.420Z,99.99
2019-03-22T08:25:16.400Z,99.99
2019-03-22T08:26:16.476Z,99.99
2019-03-22T08:27:16.371Z,99.99
2019-03-22T08:28:16.336Z,99.99
2019-03-22T08:29:16.343Z,99.99
2019-03-22T08:30:16.308Z,99.99
2019-03-22T08:31:16.307Z,99.99
2019-03-22T08:32:16.250Z,99.99
2019-03-22T08:33:16.254Z,99.99
2019-03-22T08:34:16.245Z,99.99
2019-03-22T08:35:16.188Z,99.99
2019-03-22T08:36:16.181Z,99.99
2019-03-22T08:37:16.177Z,99.99
2019-03-22T08:38:17.541Z,99.99
2019-03-22T08:39:16.099Z,99.99
2019-03-22T08:40:16.095Z,99.99
2019-03-22T08:41:16.063Z,99.99
2019-03-22T08:42:16.138Z,99.99
2019-03-22T08:43:16.014Z,99.99
2019-03-22T08:44:15.992Z,99.99
2019-03-22T08:45:15.991Z,99.99
2019-03-22T08:46:15.952Z,99.99
2019-03-22T08:47:15.931Z,99.99
2019-03-22T08:48:15.926Z,99.99
2019-03-22T08:49:15.996Z,99.99
2019-03-22T08:50:15.867Z,99.99
2019-03-22T08:51:15.871Z,99.99
2019-03-22T08:52:15.851Z,99.99
2019-03-22T08:53:15.821Z,99.99
2019-03-22T08:54:15.801Z,99.99
2019-03-22T08:55:15.765Z,99.99
2019-03-22T08:56:15.743Z,99.99
2019-03-22T08:57:15.720Z,99.99
2019-03-22T08:58:18.306Z,99.99
2019-03-22T08:59:15.681Z,99.99
2019-03-22T09:00:15.665Z,99.99
2019-03-22T09:01:15.642Z,99.99
2019-03-22T09:02:15.650Z,99.99
2019-03-22T09:03:15.600Z,99.99
2019-03-22T09:04:15.597Z,99.99
2019-03-22T09:05:15.580Z,99.99
2019-03-22T09:06:15.535Z,99.99
2019-03-22T09:07:15.514Z,99.99
2019-03-22T09:08:16.218Z,99.99
2019-03-22T09:09:15.468Z,99.99
2019-03-22T09:10:15.451Z,99.99
2019-03-22T09:11:18.037Z,99.99
2019-03-22T09:12:15.417Z,99.99
2019-03-22T09:13:15.415Z,99.99
2019-03-22T09:14:15.375Z,99.99
2019-03-22T09:15:15.347Z,99.99
2019-03-22T09:16:15.374Z,99.99
2019-03-22T09:17:15.303Z,99.99
2019-03-22T09:18:15.633Z,99.99
2019-03-22T09:19:15.265Z,99.99
2019-03-22T09:20:15.245Z,99.99
2019-03-22T09:21:15.254Z,99.47
2019-03-22T09:22:15.203Z,97.75
2019-03-22T09:23:15.185Z,98.08
2019-03-22T09:24:15.164Z,97.61
2019-03-22T09:25:15.153Z,95.98
2019-03-22T09:26:15.155Z,96.27
2019-03-22T09:27:15.105Z,96.17
2019-03-22T09:28:15.132Z,95.89
2019-03-22T09:29:15.094Z,95.41
2019-03-22T09:30:15.040Z,93.50
2019-03-22T09:31:15.017Z,94.36
2019-03-22T09:32:15.033Z,94.51
2019-03-22T09:33:14.982Z,93.65
2019-03-22T09:34:14.965Z,92.97
2019-03-22T09:35:14.934Z,92.59
2019-03-22T09:36:14.914Z,90.59
2019-03-22T09:37:14.912Z,89.92
2019-03-22T09:38:14.886Z,89.63
2019-03-22T09:39:14.864Z,90.11
2019-03-22T09:40:14.833Z,89.92
2019-03-22T09:41:14.813Z,89.20
2019-03-22T09:42:14.847Z,88.77
2019-03-22T09:43:14.778Z,87.66
2019-03-22T09:44:14.887Z,86.71
2019-03-22T09:45:14.795Z,86.61
2019-03-22T09:46:14.725Z,87.38
2019-03-22T09:47:16.507Z,86.80
2019-03-22T09:48:14.684Z,85.94
2019-03-22T09:49:14.694Z,85.75
2019-03-22T09:50:14.647Z,86.90
2019-03-22T09:51:14.644Z,87.38
2019-03-22T09:52:14.600Z,84.32
2019-03-22T09:53:14.580Z,83.69
2019-03-22T09:54:14.557Z,85.03
2019-03-22T09:55:14.766Z,85.41
2019-03-22T09:56:14.570Z,84.94
2019-03-22T09:57:14.551Z,84.94
2019-03-22T09:58:14.478Z,83.79
2019-03-22T09:59:14.472Z,83.40
2019-03-22T10:00:14.488Z,83.12
2019-03-22T10:01:23.677Z,83.60
2019-03-22T10:02:14.469Z,84.36
2019-03-22T10:03:14.378Z,83.98
2019-03-22T10:04:14.453Z,83.93
2019-03-22T10:05:14.343Z,83.64
2019-03-22T10:06:14.318Z,84.12
2019-03-22T10:07:14.305Z,84.31
2019-03-22T10:08:14.309Z,83.83
2019-03-22T10:09:14.281Z,83.36
2019-03-22T10:10:14.259Z,82.97
2019-03-22T10:11:14.271Z,84.22
2019-03-22T10:12:14.210Z,83.06
2019-03-22T10:13:14.226Z,82.49
2019-03-22T10:14:14.173Z,81.63
2019-03-22T10:15:14.144Z,80.38
2019-03-22T10:16:14.151Z,79.14
2019-03-22T10:17:14.107Z,79.57
2019-03-22T10:18:14.087Z,79.66
2019-03-22T10:19:14.066Z,79.52
2019-03-22T10:20:14.078Z,78.66
2019-03-22T10:21:22.413Z,78.76
2019-03-22T10:22:14.068Z,77.51
2019-03-22T10:23:14.021Z,75.60
2019-03-22T10:24:14.046Z,75.54
2019-03-22T10:25:13.961Z,76.40
2019-03-22T10:26:13.932Z,76.12
2019-03-22T10:27:13.910Z,76.21
2019-03-22T10:28:13.921Z,76.31
2019-03-22T10:29:13.874Z,76.79
2019-03-22T10:30:13.870Z,75.73
2019-03-22T10:31:13.838Z,76.50
2019-03-22T10:32:13.856Z,75.58
2019-03-22T10:33:22.493Z,76.92
2019-03-22T10:34:13.782Z,76.35
2019-03-22T10:35:25.426Z,76.73
2019-03-22T10:36:13.889Z,76.54
2019-03-22T10:37:13.737Z,76.25
2019-03-22T10:38:16.277Z,74.72
2019-03-22T10:39:13.691Z,74.15
2019-03-22T10:40:13.733Z,74.43
2019-03-22T10:41:13.647Z,75.29
2019-03-22T10:42:13.633Z,76.92
2019-03-22T10:43:13.633Z,76.82
2019-03-22T10:44:13.591Z,77.59
2019-03-22T10:45:13.579Z,75.68
2019-03-22T10:46:13.631Z,74.66
2019-03-22T10:47:13.533Z,74.85
2019-03-22T10:48:13.529Z,75.33
2019-03-22T10:49:13.513Z,76.00
2019-03-22T10:50:13.511Z,74.76
2019-03-22T10:51:13.618Z,73.90
2019-03-22T10:52:13.487Z,73.41
2019-03-22T10:53:13.473Z,74.43
2019-03-22T10:54:13.416Z,74.76
2019-03-22T10:55:28.943Z,75.14
2019-03-22T10:56:13.377Z,74.85
2019-03-22T10:57:13.348Z,73.70
2019-03-22T10:58:20.945Z,74.08
2019-03-22T10:59:13.317Z,73.99
2019-03-22T11:00:13.293Z,72.94
2019-03-22T11:01:13.287Z,74.27
2019-03-22T11:02:13.252Z,74.85
2019-03-22T11:03:13.238Z,74.57
2019-03-22T11:04:13.227Z,72.36
2019-03-22T11:05:13.216Z,71.59
2019-03-22T11:06:13.191Z,71.21
2019-03-22T11:07:13.169Z,71.92
2019-03-22T11:08:13.159Z,70.96
2019-03-22T11:09:13.126Z,70.54
2019-03-22T11:10:13.696Z,70.35
2019-03-22T11:11:13.089Z,71.31
2019-03-22T11:12:13.071Z,71.15
2019-03-22T11:13:13.058Z,72.88
2019-03-22T11:14:13.034Z,71.82
2019-03-22T11:15:13.020Z,71.92
2019-03-22T11:16:13.000Z,70.09
2019-03-22T11:17:12.983Z,68.18
2019-03-22T11:18:12.962Z,68.08
2019-03-22T11:19:12.942Z,66.35
2019-03-22T11:20:12.924Z,66.06
2019-03-22T11:21:12.905Z,67.32
2019-03-22T11:22:12.893Z,69.23
2019-03-22T11:23:12.870Z,67.99
2019-03-22T11:24:12.855Z,67.89
2019-03-22T11:25:12.838Z,67.32
2019-03-22T11:26:12.815Z,68.37
2019-03-22T11:27:13.763Z,68.85
2019-03-22T11:28:12.779Z,66.83
2019-03-22T11:29:12.760Z,66.93
2019-03-22T11:30:12.742Z,66.74
2019-03-22T11:31:12.724Z,66.19
2019-03-22T11:32:13.070Z,67.02
2019-03-22T11:33:12.689Z,66.83
2019-03-22T11:34:12.676Z,66.26
2019-03-22T11:35:12.659Z,67.02
2019-03-22T11:36:12.634Z,67.89
2019-03-22T11:37:12.616Z,67.16
2019-03-22T11:38:12.599Z,66.96
2019-03-22T11:39:15.892Z,67.69
2019-03-22T11:40:12.566Z,66.00
2019-03-22T11:41:12.545Z,66.86
2019-03-22T11:42:12.526Z,65.05
2019-03-22T11:43:12.515Z,65.81
2019-03-22T11:44:12.503Z,64.85
2019-03-22T11:45:12.477Z,63.70
2019-03-22T11:46:12.460Z,63.89
2019-03-22T11:47:12.433Z,66.39
2019-03-22T11:48:12.417Z,67.63
2019-03-22T11:49:12.399Z,67.06
2019-03-22T11:50:12.384Z,68.40
2019-03-22T11:51:12.364Z,67.16
2019-03-22T11:52:12.348Z,65.91
2019-03-22T11:53:12.333Z,65.72
2019-03-22T11:54:12.311Z,65.62
2019-03-22T11:55:12.293Z,66.77
2019-03-22T11:56:12.284Z,65.17
2019-03-22T11:57:12.258Z,64.02
2019-03-22T11:58:12.242Z,62.93
2019-03-22T11:59:12.235Z,64.56
2019-03-22T12:00:12.204Z,63.03
2019-03-22T12:01:19.287Z,64.66
2019-03-22T12:02:21.998Z,62.36
2019-03-22T12:03:12.152Z,62.45
2019-03-22T12:04:12.133Z,63.12
2019-03-22T12:05:12.125Z,64.98
2019-03-22T12:06:12.099Z,63.54
2019-03-22T12:07:12.091Z,65.75
2019-03-22T12:08:12.067Z,64.98
2019-03-22T12:09:12.051Z,64.40
2019-03-22T12:10:12.035Z,62.68
2019-03-22T12:11:12.011Z,63.64
2019-03-22T12:12:11.991Z,64.31
2019-03-22T12:13:11.974Z,63.64
2019-03-22T12:14:11.968Z,63.25
2019-03-22T12:15:11.937Z,62.87
2019-03-22T12:16:11.917Z,63.83
2019-03-22T12:17:11.902Z,60.85
2019-03-22T12:18:11.881Z,60.08
2019-03-22T12:19:11.870Z,59.99
2019-03-22T12:20:11.859Z,62.01
2019-03-22T12:21:11.840Z,63.64
2019-03-22T12:22:11.812Z,63.45
2019-03-22T12:23:11.805Z,62.01
2019-03-22T12:24:11.823Z,61.81
2019-03-22T12:25:11.760Z,60.18
2019-03-22T12:26:11.745Z,61.43
2019-03-22T12:27:11.723Z,60.66
2019-03-22T12:28:11.718Z,62.19
2019-03-22T12:29:11.695Z,62.29
2019-03-22T12:30:11.679Z,63.25
2019-03-22T12:31:11.651Z,63.92
2019-03-22T12:32:11.646Z,63.45
2019-03-22T12:33:11.630Z,62.77
2019-03-22T12:34:11.599Z,61.14
2019-03-22T12:35:11.591Z,62.29
2019-03-22T12:36:11.563Z,60.95
2019-03-22T12:37:11.547Z,60.95
2019-03-22T12:38:11.529Z,60.38
2019-03-22T12:39:11.507Z,59.80
2019-03-22T12:40:11.492Z,59.32
2019-03-22T12:41:11.478Z,59.64
2019-03-22T12:42:11.459Z,60.18
2019-03-22T12:43:11.444Z,60.57
2019-03-22T12:44:11.427Z,60.85
2019-03-22T12:45:11.405Z,60.75
2019-03-22T12:46:11.394Z,59.41
2019-03-22T12:47:11.370Z,59.51
2019-03-22T12:48:11.353Z,59.70
2019-03-22T12:49:11.335Z,59.51
2019-03-22T12:50:11.330Z,60.47
2019-03-22T12:51:11.299Z,61.72
2019-03-22T12:52:11.280Z,60.75